Time,TemperatureF,DewpointF,PressureIn,WindDirection,WindDirectionDegrees,WindSpeedMPH,WindSpeedGustMPH,Humidity,HourlyPrecipIn,Conditions,Clouds,dailyrainin,SoftwareType,DateUTC
2013-10-28 00:03:00,52.0,50.0,30.00,SSW,199,0.0,3.0,92,0.00,,,0.00,weatherlink.com 1.10,2013-10-28 06:03:00,
2013-10-28 00:18:00,52.4,50.0,30.00,South,170,0.0,3.0,92,0.00,,,0.00,weatherlink.com 1.10,2013-10-28 06:18:00,
2013-10-28 00:33:00,52.6,51.0,30.00,South,181,1.0,5.0,93,0.00,,,0.00,weatherlink.com 1.10,2013-10-28 06:33:00,
2013-10-28 00:48:00,52.8,51.0,30.00,SW,214,0.0,1.0,93,0.00,,,0.00,weatherlink.com 1.10,2013-10-28 06:48:00,
2013-10-28 01:03:00,53.1,51.0,30.01,South,178,1.0,6.0,93,0.00,,,0.00,weatherlink.com 1.10,2013-10-28 07:03:00,
2013-10-28 01:18:00,53.5,52.0,30.01,SSW,192,4.0,5.0,94,0.00,,,0.00,weatherlink.com 1.10,2013-10-28 07:18:00,
2013-10-28 01:33:00,53.8,52.0,30.01,SW,218,0.0,5.0,94,0.00,,,0.00,weatherlink.com 1.10,2013-10-28 07:33:00,
2013-10-28 01:48:00,54.1,53.0,30.02,SW,222,0.0,7.0,94,0.00,,,0.00,weatherlink.com 1.10,2013-10-28 07:48:00,
2013-10-28 02:03:00,54.3,53.0,30.02,SSW,192,2.0,5.0,94,0.00,,,0.00,weatherlink.com 1.10,2013-10-28 08:03:00,
2013-10-28 02:18:00,54.6,53.0,30.02,SSW,207,0.0,6.0,94,0.00,,,0.00,weatherlink.com 1.10,2013-10-28 08:18:00,
2013-10-28 02:33:00,54.8,53.0,30.02,SW,225,3.0,8.0,94,0.00,,,0.00,weatherlink.com 1.10,2013-10-28 08:33:00,
2013-10-28 02:48:00,54.9,53.0,30.02,SSW,202,0.0,6.0,94,0.00,,,0.00,weatherlink.com 1.10,2013-10-28 08:48:00,
2013-10-28 03:03:00,55.0,53.0,30.02,SSW,209,0.0,6.0,94,0.00,,,0.00,weatherlink.com 1.10,2013-10-28 09:03:00,
2013-10-28 03:18:00,55.1,54.0,30.02,South,175,7.0,8.0,94,0.00,,,0.00,weatherlink.com 1.10,2013-10-28 09:18:00,
2013-10-28 03:33:00,55.1,54.0,30.03,SSW,201,0.0,7.0,94,0.00,,,0.00,weatherlink.com 1.10,2013-10-28 09:33:00,
2013-10-28 03:48:00,55.2,54.0,30.02,South,179,0.0,0.0,94,0.00,,,0.00,weatherlink.com 1.10,2013-10-28 09:48:00,
2013-10-28 04:03:00,55.2,54.0,30.03,South,179,0.0,0.0,94,0.00,,,0.00,weatherlink.com 1.10,2013-10-28 10:03:00,
2013-10-28 04:18:00,55.0,53.0,30.03,South,179,2.0,3.0,94,0.00,,,0.00,weatherlink.com 1.10,2013-10-28 10:18:00,
2013-10-28 04:33:00,55.1,54.0,30.04,SSW,200,0.0,7.0,94,0.00,,,0.00,weatherlink.com 1.10,2013-10-28 10:33:00,
2013-10-28 04:48:00,55.2,54.0,30.04,SSW,200,0.0,0.0,94,0.00,,,0.00,weatherlink.com 1.10,2013-10-28 10:48:00,
2013-10-28 05:03:00,55.2,53.0,30.05,SSW,200,0.0,0.0,93,0.00,,,0.00,weatherlink.com 1.10,2013-10-28 11:03:00,
2013-10-28 05:18:00,55.2,53.0,30.05,SSW,200,0.0,0.0,93,0.00,,,0.00,weatherlink.com 1.10,2013-10-28 11:18:00,
2013-10-28 05:33:00,55.2,53.0,30.05,SSW,200,0.0,0.0,93,0.00,,,0.00,weatherlink.com 1.10,2013-10-28 11:33:00,
2013-10-28 05:48:00,55.2,53.0,30.06,SSW,200,0.0,3.0,93,0.00,,,0.00,weatherlink.com 1.10,2013-10-28 11:48:00,
2013-10-28 06:03:00,55.3,53.0,30.06,South,184,0.0,6.0,93,0.00,,,0.00,weatherlink.com 1.10,2013-10-28 12:03:00,
2013-10-28 06:18:00,55.2,53.0,30.06,SSW,211,0.0,7.0,93,0.00,,,0.00,weatherlink.com 1.10,2013-10-28 12:18:00,
2013-10-28 06:33:00,55.1,53.0,30.07,South,190,0.0,1.0,93,0.00,,,0.00,weatherlink.com 1.10,2013-10-28 12:33:00,
2013-10-28 06:48:00,54.9,53.0,30.08,SSE,161,0.0,4.0,93,0.00,,,0.00,weatherlink.com 1.10,2013-10-28 12:48:00,
2013-10-28 07:03:00,54.8,53.0,30.08,SSE,161,0.0,3.0,94,0.00,,,0.00,weatherlink.com 1.10,2013-10-28 13:03:00,
2013-10-28 07:18:00,54.6,53.0,30.09,SSE,166,0.0,4.0,93,0.00,,,0.00,weatherlink.com 1.10,2013-10-28 13:18:00,
2013-10-28 07:33:00,54.6,53.0,30.09,SSE,168,0.0,5.0,94,0.00,,,0.00,weatherlink.com 1.10,2013-10-28 13:33:00,
2013-10-28 07:48:00,54.6,53.0,30.10,SE,136,5.0,5.0,94,0.00,,,0.00,weatherlink.com 1.10,2013-10-28 13:48:00,
2013-10-28 08:03:00,54.7,53.0,30.11,SE,131,0.0,8.0,94,0.00,,,0.00,weatherlink.com 1.10,2013-10-28 14:03:00,
2013-10-28 08:18:00,54.9,54.0,30.12,SSE,167,0.0,6.0,95,0.00,,,0.00,weatherlink.com 1.10,2013-10-28 14:18:00,
2013-10-28 08:33:00,55.0,53.0,30.12,SE,145,0.0,7.0,94,0.00,,,0.00,weatherlink.com 1.10,2013-10-28 14:33:00,
2013-10-28 08:48:00,55.0,53.0,30.12,SE,137,0.0,8.0,94,0.00,,,0.00,weatherlink.com 1.10,2013-10-28 14:48:00,
2013-10-28 09:03:00,55.1,54.0,30.12,ESE,123,0.0,6.0,94,0.00,,,0.00,weatherlink.com 1.10,2013-10-28 15:03:00,
2013-10-28 09:18:00,55.5,54.0,30.12,SE,128,0.0,8.0,94,0.00,,,0.00,weatherlink.com 1.10,2013-10-28 15:18:00,
2013-10-28 09:34:00,56.1,54.0,30.12,SSE,158,3.0,8.0,93,0.00,,,0.00,weatherlink.com 1.10,2013-10-28 15:34:00,
2013-10-28 09:49:00,57.4,55.0,30.12,SSE,162,0.0,8.0,92,0.00,,,0.00,weatherlink.com 1.10,2013-10-28 15:49:00,
2013-10-28 10:04:00,58.3,55.0,30.12,SE,143,8.0,8.0,89,0.00,,,0.00,weatherlink.com 1.10,2013-10-28 16:04:00,
2013-10-28 10:19:00,59.4,55.0,30.13,SW,216,5.0,12.0,86,0.00,,,0.00,weatherlink.com 1.10,2013-10-28 16:19:00,
2013-10-28 10:34:00,60.4,55.0,30.12,SSW,196,3.0,7.0,83,0.00,,,0.00,weatherlink.com 1.10,2013-10-28 16:34:00,
2013-10-28 10:49:00,60.5,55.0,30.12,South,175,3.0,8.0,83,0.00,,,0.00,weatherlink.com 1.10,2013-10-28 16:49:00,
2013-10-28 11:04:00,61.4,56.0,30.12,South,170,3.0,7.0,81,0.00,,,0.00,weatherlink.com 1.10,2013-10-28 17:04:00,
2013-10-28 11:19:00,63.5,57.0,30.12,South,182,0.0,8.0,78,0.00,,,0.00,weatherlink.com 1.10,2013-10-28 17:19:00,
2013-10-28 11:34:00,64.5,56.0,30.11,SSE,164,3.0,8.0,75,0.00,,,0.00,weatherlink.com 1.10,2013-10-28 17:34:00,
2013-10-28 11:49:00,65.4,57.0,30.10,ESE,121,1.0,8.0,73,0.00,,,0.00,weatherlink.com 1.10,2013-10-28 17:49:00,
2013-10-28 12:04:00,66.7,56.0,30.09,SE,130,1.0,9.0,69,0.00,,,0.00,weatherlink.com 1.10,2013-10-28 18:04:00,
2013-10-28 12:19:00,66.8,56.0,30.08,South,179,0.0,11.0,68,0.00,,,0.00,weatherlink.com 1.10,2013-10-28 18:19:00,
2013-10-28 12:34:00,68.2,57.0,30.07,SE,126,0.0,11.0,67,0.00,,,0.00,weatherlink.com 1.10,2013-10-28 18:34:00,
2013-10-28 12:49:00,68.8,57.0,30.07,South,178,1.0,14.0,66,0.00,,,0.00,weatherlink.com 1.10,2013-10-28 18:49:00,
2013-10-28 13:04:00,69.0,57.0,30.06,SE,142,1.0,11.0,65,0.00,,,0.00,weatherlink.com 1.10,2013-10-28 19:04:00,
2013-10-28 13:19:00,68.2,56.0,30.06,South,175,4.0,9.0,65,0.00,,,0.00,weatherlink.com 1.10,2013-10-28 19:19:00,
2013-10-28 13:34:00,69.1,57.0,30.06,SE,131,6.0,9.0,65,0.00,,,0.00,weatherlink.com 1.10,2013-10-28 19:34:00,
2013-10-28 13:49:00,69.3,57.0,30.04,SSE,150,0.0,8.0,64,0.00,,,0.00,weatherlink.com 1.10,2013-10-28 19:49:00,
2013-10-28 14:04:00,69.8,57.0,30.04,ESE,121,9.0,10.0,63,0.00,,,0.00,weatherlink.com 1.10,2013-10-28 20:04:00,
2013-10-28 14:19:00,69.3,56.0,30.04,SSE,149,0.0,12.0,63,0.00,,,0.00,weatherlink.com 1.10,2013-10-28 20:19:00,
2013-10-28 14:34:00,69.1,56.0,30.04,SSW,195,0.0,11.0,64,0.00,,,0.00,weatherlink.com 1.10,2013-10-28 20:34:00,
2013-10-28 14:49:00,68.8,56.0,30.04,SE,136,5.0,8.0,65,0.00,,,0.00,weatherlink.com 1.10,2013-10-28 20:49:00,
2013-10-28 15:04:00,68.5,56.0,30.04,SE,125,8.0,13.0,65,0.00,,,0.00,weatherlink.com 1.10,2013-10-28 21:04:00,
2013-10-28 15:19:00,68.7,57.0,30.04,SE,141,0.0,10.0,66,0.00,,,0.00,weatherlink.com 1.10,2013-10-28 21:19:00,
2013-10-28 15:34:00,68.6,56.0,30.03,SSE,157,0.0,11.0,65,0.00,,,0.00,weatherlink.com 1.10,2013-10-28 21:34:00,
2013-10-28 15:49:00,68.9,57.0,30.03,ESE,112,0.0,10.0,65,0.00,,,0.00,weatherlink.com 1.10,2013-10-28 21:49:00,
2013-10-28 16:04:00,68.5,56.0,30.03,SE,136,0.0,12.0,65,0.00,,,0.00,weatherlink.com 1.10,2013-10-28 22:04:00,
2013-10-28 16:19:00,67.4,56.0,30.04,SE,132,1.0,12.0,67,0.00,,,0.00,weatherlink.com 1.10,2013-10-28 22:19:00,
2013-10-28 16:34:00,66.9,56.0,30.03,SSE,154,2.0,10.0,68,0.00,,,0.00,weatherlink.com 1.10,2013-10-28 22:34:00,
2013-10-28 16:49:00,67.0,56.0,30.03,SSE,149,0.0,8.0,69,0.00,,,0.00,weatherlink.com 1.10,2013-10-28 22:49:00,
2013-10-28 17:04:00,66.7,57.0,30.03,South,174,0.0,6.0,70,0.00,,,0.00,weatherlink.com 1.10,2013-10-28 23:04:00,
2013-10-28 17:19:00,66.1,56.0,30.02,SE,145,0.0,6.0,71,0.00,,,0.00,weatherlink.com 1.10,2013-10-28 23:19:00,
2013-10-28 17:34:00,65.6,56.0,30.02,ESE,118,2.0,3.0,72,0.00,,,0.00,weatherlink.com 1.10,2013-10-28 23:34:00,
2013-10-28 17:49:00,65.3,56.0,30.03,SE,125,0.0,1.0,73,0.00,,,0.00,weatherlink.com 1.10,2013-10-28 23:49:00,
2013-10-28 18:04:00,65.1,56.0,30.04,ESE,109,0.0,6.0,73,0.00,,,0.00,weatherlink.com 1.10,2013-10-29 00:04:00,
2013-10-28 18:19:00,65.0,56.0,30.03,SE,133,0.0,7.0,73,0.00,,,0.00,weatherlink.com 1.10,2013-10-29 00:19:00,
2013-10-28 18:34:00,64.8,56.0,30.04,ESE,122,0.0,5.0,73,0.00,,,0.00,weatherlink.com 1.10,2013-10-29 00:34:00,
2013-10-28 18:49:00,64.6,56.0,30.04,SE,126,0.0,6.0,74,0.00,,,0.00,weatherlink.com 1.10,2013-10-29 00:49:00,
2013-10-28 19:04:00,64.6,56.0,30.05,SSE,150,5.0,7.0,73,0.00,,,0.00,weatherlink.com 1.10,2013-10-29 01:04:00,
2013-10-28 19:19:00,64.5,56.0,30.05,SE,125,4.0,8.0,74,0.00,,,0.00,weatherlink.com 1.10,2013-10-29 01:19:00,
2013-10-28 19:34:00,64.4,56.0,30.05,SE,134,0.0,8.0,74,0.00,,,0.00,weatherlink.com 1.10,2013-10-29 01:34:00,
2013-10-28 19:49:00,64.2,56.0,30.05,SE,133,8.0,10.0,75,0.00,,,0.00,weatherlink.com 1.10,2013-10-29 01:49:00,
2013-10-28 20:04:00,64.2,57.0,30.06,SE,137,0.0,4.0,76,0.00,,,0.00,weatherlink.com 1.10,2013-10-29 02:04:00,
2013-10-28 20:19:00,64.0,56.0,30.05,SE,129,0.0,8.0,76,0.00,,,0.00,weatherlink.com 1.10,2013-10-29 02:19:00,
2013-10-28 20:34:00,63.7,56.0,30.05,ESE,119,0.0,13.0,77,0.00,,,0.00,weatherlink.com 1.10,2013-10-29 02:34:00,
2013-10-28 20:49:00,63.3,57.0,30.06,ESE,123,8.0,8.0,79,0.00,,,0.00,weatherlink.com 1.10,2013-10-29 02:49:00,
2013-10-28 21:05:00,63.2,57.0,30.07,SE,130,4.0,10.0,80,0.00,,,0.00,weatherlink.com 1.10,2013-10-29 03:05:00,
2013-10-28 21:20:00,63.2,57.0,30.07,SSE,150,0.0,10.0,80,0.00,,,0.00,weatherlink.com 1.10,2013-10-29 03:20:00,
2013-10-28 21:35:00,63.2,57.0,30.07,SE,137,0.0,11.0,81,0.00,,,0.00,weatherlink.com 1.10,2013-10-29 03:35:00,
2013-10-28 21:50:00,62.9,57.0,30.06,SE,136,0.0,11.0,82,0.00,,,0.00,weatherlink.com 1.10,2013-10-29 03:50:00,
2013-10-28 22:05:00,62.7,58.0,30.06,SE,129,0.0,11.0,83,0.00,,,0.00,weatherlink.com 1.10,2013-10-29 04:05:00,
2013-10-28 22:20:00,62.7,58.0,30.06,SSE,147,0.0,7.0,84,0.00,,,0.00,weatherlink.com 1.10,2013-10-29 04:20:00,
2013-10-28 22:35:00,62.6,58.0,30.06,SE,141,0.0,12.0,85,0.00,,,0.00,weatherlink.com 1.10,2013-10-29 04:35:00,
2013-10-28 22:50:00,62.4,58.0,30.05,SE,130,0.0,4.0,85,0.00,,,0.00,weatherlink.com 1.10,2013-10-29 04:50:00,
2013-10-28 23:05:00,62.3,58.0,30.05,SE,135,0.0,7.0,86,0.00,,,0.00,weatherlink.com 1.10,2013-10-29 05:05:00,
2013-10-28 23:20:00,62.3,58.0,30.04,SE,125,1.0,10.0,86,0.00,,,0.00,weatherlink.com 1.10,2013-10-29 05:20:00,
2013-10-28 23:35:00,62.4,58.0,30.04,South,169,4.0,9.0,85,0.00,,,0.00,weatherlink.com 1.10,2013-10-29 05:35:00,
2013-10-28 23:50:00,62.3,58.0,30.03,SSW,196,4.0,14.0,85,0.00,,,0.00,weatherlink.com 1.10,2013-10-29 05:50:00,